createdAt,value
2023-06-28T00:01:04.016Z,6.78
2023-06-28T00:03:36.994Z,5.70
2023-06-28T00:06:10.130Z,3.30
2023-06-28T00:08:44.613Z,3.20
2023-06-28T00:11:17.545Z,4.45
2023-06-28T00:13:50.453Z,5.38
2023-06-28T00:16:24.211Z,5.22
2023-06-28T00:19:01.842Z,4.00
2023-06-28T00:21:34.984Z,3.47
2023-06-28T00:24:09.357Z,5.45
2023-06-28T00:26:42.320Z,4.18
2023-06-28T00:29:15.251Z,3.80
2023-06-28T00:31:48.323Z,8.57
2023-06-28T00:34:23.053Z,2.15
2023-06-28T00:36:55.873Z,2.55
2023-06-28T00:39:30.157Z,3.30
2023-06-28T00:42:03.263Z,2.17
2023-06-28T00:44:36.101Z,2.30
2023-06-28T00:47:09.867Z,5.43
2023-06-28T00:49:44.812Z,5.30
2023-06-28T00:52:17.802Z,5.38
2023-06-28T00:54:52.602Z,5.10
2023-06-28T00:57:27.258Z,3.47
2023-06-28T01:00:01.265Z,3.38
2023-06-28T01:02:34.340Z,5.00
2023-06-28T01:05:07.499Z,3.67
2023-06-28T01:07:41.824Z,3.70
2023-06-28T01:10:19.351Z,3.90
2023-06-28T01:12:52.549Z,4.15
2023-06-28T01:15:25.553Z,11.07
2023-06-28T01:17:58.665Z,3.05
2023-06-28T01:20:31.760Z,6.57
2023-06-28T01:23:06.583Z,3.15
2023-06-28T01:25:39.638Z,4.57
2023-06-28T01:28:12.884Z,4.10
2023-06-28T01:30:49.991Z,6.28
2023-06-28T01:33:22.958Z,5.32
2023-06-28T01:35:55.929Z,4.55
2023-06-28T01:38:31.068Z,2.70
2023-06-28T01:41:04.889Z,4.13
2023-06-28T01:43:38.534Z,2.92
2023-06-28T01:46:12.484Z,3.67
2023-06-28T01:48:45.682Z,4.05
2023-06-28T01:51:19.004Z,6.68
2023-06-28T01:53:53.239Z,2.55
2023-06-28T01:56:26.230Z,3.17
2023-06-28T01:58:59.284Z,4.30
2023-06-28T02:01:32.387Z,3.97
2023-06-28T02:04:05.686Z,2.90
2023-06-28T02:06:41.018Z,4.00
2023-06-28T02:09:15.996Z,4.15
2023-06-28T02:11:48.884Z,3.42
2023-06-28T02:14:21.879Z,5.30
2023-06-28T02:16:55.945Z,4.57
2023-06-28T02:19:34.421Z,2.97
2023-06-28T02:22:07.584Z,6.55
2023-06-28T02:24:42.103Z,3.13
2023-06-28T02:27:16.452Z,4.35
2023-06-28T02:29:51.798Z,3.20
2023-06-28T02:32:24.713Z,3.47
2023-06-28T02:34:57.594Z,4.68
2023-06-28T02:37:30.534Z,3.22
2023-06-28T02:40:05.879Z,3.28
2023-06-28T02:42:38.803Z,4.93
2023-06-28T02:47:46.089Z,4.38
2023-06-28T02:50:19.852Z,5.40
2023-06-28T02:53:07.379Z,4.47
2023-06-28T02:55:41.877Z,3.55
2023-06-28T02:58:14.850Z,6.65
2023-06-28T03:00:49.015Z,6.47
2023-06-28T03:03:24.156Z,6.18
2023-06-28T03:05:57.459Z,4.07
2023-06-28T03:08:30.405Z,5.90
2023-06-28T03:11:04.728Z,3.60
2023-06-28T03:13:37.895Z,7.68
2023-06-28T03:18:44.088Z,12.50
2023-06-28T03:21:17.546Z,2.55
2023-06-28T03:23:51.671Z,3.05
2023-06-28T03:26:26.076Z,4.68
2023-06-28T03:28:59.783Z,7.30
2023-06-28T03:31:34.523Z,6.65
2023-06-28T03:34:08.757Z,5.80
2023-06-28T03:36:58.152Z,8.48
2023-06-28T03:39:36.082Z,6.65
2023-06-28T03:42:10.586Z,5.70
2023-06-28T03:44:44.128Z,5.88
2023-06-28T03:47:19.956Z,4.15
2023-06-28T03:49:54.421Z,8.23
2023-06-28T03:52:27.382Z,6.40
2023-06-28T03:55:00.376Z,5.60
2023-06-28T03:57:35.112Z,5.07
2023-06-28T04:00:11.289Z,4.55
2023-06-28T04:02:47.389Z,4.55
2023-06-28T04:07:58.964Z,3.60
2023-06-28T04:10:32.594Z,4.65
2023-06-28T04:15:40.493Z,4.30
2023-06-28T04:18:13.357Z,7.47
2023-06-28T04:20:46.457Z,4.00
2023-06-28T04:23:19.324Z,6.18
2023-06-28T04:25:53.626Z,4.55
2023-06-28T04:28:28.017Z,6.43
2023-06-28T04:31:01.047Z,4.82
2023-06-28T04:33:36.357Z,2.50
2023-06-28T04:36:10.741Z,3.58
2023-06-28T04:38:43.672Z,3.03
2023-06-28T04:41:16.534Z,3.50
2023-06-28T04:43:55.738Z,4.43
2023-06-28T04:46:28.826Z,4.97
2023-06-28T04:49:01.933Z,4.93
2023-06-28T04:51:35.001Z,4.32
2023-06-28T04:54:07.921Z,3.47
2023-06-28T04:56:40.865Z,3.38
2023-06-28T04:59:15.155Z,3.85
2023-06-28T05:01:48.185Z,5.35
2023-06-28T05:04:21.105Z,3.17
2023-06-28T05:06:53.999Z,3.20
2023-06-28T05:09:26.927Z,3.65
2023-06-28T05:11:59.968Z,2.70
2023-06-28T05:14:34.297Z,9.27
2023-06-28T05:17:07.337Z,5.22
2023-06-28T05:19:40.202Z,5.80
2023-06-28T05:22:13.038Z,4.75
2023-06-28T05:24:45.936Z,5.03
2023-06-28T05:27:18.845Z,4.85
2023-06-28T05:29:53.209Z,4.97
2023-06-28T05:32:26.228Z,5.88
2023-06-28T05:34:59.180Z,5.38
2023-06-28T05:37:31.995Z,7.05
2023-06-28T05:40:05.689Z,6.15
2023-06-28T05:42:38.569Z,4.25
2023-06-28T05:45:13.233Z,5.00
2023-06-28T05:47:46.227Z,2.70
2023-06-28T05:50:24.824Z,2.55
2023-06-28T05:52:58.343Z,3.42
2023-06-28T05:55:31.309Z,5.05
2023-06-28T05:58:04.244Z,8.10
2023-06-28T06:00:38.773Z,4.40
2023-06-28T06:03:12.125Z,3.42
2023-06-28T06:05:46.405Z,2.85
2023-06-28T06:08:19.326Z,4.75
2023-06-28T06:10:52.281Z,7.57
2023-06-28T06:13:25.150Z,4.07
2023-06-28T06:15:59.559Z,5.68
2023-06-28T06:18:32.468Z,5.05
2023-06-28T06:21:05.536Z,10.20
2023-06-28T06:23:38.522Z,7.13
2023-06-28T06:26:11.474Z,13.70
2023-06-28T06:28:44.322Z,6.30
2023-06-28T06:31:18.632Z,4.93
2023-06-28T06:33:51.551Z,6.20
2023-06-28T06:36:24.653Z,3.40
2023-06-28T06:38:58.433Z,6.32
2023-06-28T06:41:31.394Z,3.53
2023-06-28T06:44:04.469Z,6.43
2023-06-28T06:46:38.756Z,8.23
2023-06-28T06:49:11.630Z,8.43
2023-06-28T06:51:44.514Z,6.95
2023-06-28T06:54:17.403Z,5.45
2023-06-28T06:56:50.342Z,10.95
2023-06-28T06:59:24.849Z,8.90
2023-06-28T07:01:59.934Z,8.85
2023-06-28T07:04:33.646Z,3.80
2023-06-28T07:07:07.131Z,4.00
2023-06-28T07:09:40.058Z,11.07
2023-06-28T07:12:12.978Z,6.60
2023-06-28T07:14:46.910Z,3.88
2023-06-28T07:17:21.328Z,10.00
2023-06-28T07:19:54.281Z,8.55
2023-06-28T07:22:28.341Z,5.28
2023-06-28T07:25:03.961Z,8.57
2023-06-28T07:27:37.029Z,6.53
2023-06-28T07:30:10.563Z,7.57
2023-06-28T07:32:44.994Z,4.07
2023-06-28T07:35:20.130Z,9.50
2023-06-28T07:37:54.209Z,7.82
2023-06-28T07:40:27.179Z,8.02
2023-06-28T07:43:03.785Z,9.85
2023-06-28T07:45:36.835Z,13.23
2023-06-28T07:48:11.669Z,5.68
2023-06-28T07:50:45.035Z,6.22
2023-06-28T07:53:18.172Z,5.18
2023-06-28T07:55:51.454Z,5.47
2023-06-28T08:00:57.045Z,4.15
2023-06-28T08:03:31.384Z,7.55
2023-06-28T08:06:04.536Z,5.93
2023-06-28T08:08:37.405Z,4.72
2023-06-28T08:11:10.284Z,4.32
2023-06-28T08:13:43.208Z,11.77
2023-06-28T08:16:18.047Z,5.80
2023-06-28T08:18:52.290Z,8.80
2023-06-28T08:21:25.314Z,6.38
2023-06-28T08:23:58.705Z,5.22
2023-06-28T08:26:31.617Z,4.80
2023-06-28T08:29:04.625Z,5.38
2023-06-28T08:31:37.685Z,5.40
2023-06-28T08:34:12.028Z,8.88
2023-06-28T08:36:44.996Z,6.68
2023-06-28T08:39:18.005Z,6.63
2023-06-28T08:41:52.912Z,6.43
2023-06-28T08:44:27.995Z,3.90
2023-06-28T08:47:01.981Z,10.55
2023-06-28T08:49:38.099Z,5.65
2023-06-28T08:52:11.967Z,4.57
2023-06-28T08:54:45.559Z,5.15
2023-06-28T08:57:18.542Z,9.77
2023-06-28T08:59:51.850Z,6.80
2023-06-28T09:02:26.005Z,4.60
2023-06-28T09:05:00.704Z,4.03
2023-06-28T09:07:35.618Z,5.60
2023-06-28T09:10:10.698Z,5.35
2023-06-28T09:12:44.157Z,4.65
2023-06-28T09:15:21.379Z,11.15
2023-06-28T09:17:55.841Z,7.97
2023-06-28T09:20:32.644Z,8.15
2023-06-28T09:23:05.643Z,6.72
2023-06-28T09:28:11.271Z,6.85
2023-06-28T09:30:59.644Z,5.53
2023-06-28T09:33:33.119Z,10.80
2023-06-28T09:36:07.669Z,6.18
2023-06-28T09:38:49.564Z,13.45
2023-06-28T09:41:22.502Z,9.00
2023-06-28T09:43:55.553Z,11.80
2023-06-28T09:46:28.556Z,4.45
2023-06-28T09:49:01.465Z,8.05
2023-06-28T09:51:35.690Z,4.20
2023-06-28T09:54:08.558Z,7.63
2023-06-28T09:56:41.600Z,5.35
2023-06-28T09:59:23.012Z,6.75
2023-06-28T10:05:03.830Z,6.88
2023-06-28T10:05:18.215Z,10.00
2023-06-28T10:07:38.470Z,3.17
2023-06-28T10:10:13.477Z,5.13
2023-06-28T10:12:47.823Z,7.90
2023-06-28T10:15:25.047Z,5.75
2023-06-28T10:17:58.180Z,3.13
2023-06-28T10:23:07.431Z,8.03
2023-06-28T10:25:42.934Z,7.90
2023-06-28T10:28:16.533Z,4.35
2023-06-28T10:30:50.261Z,2.50
2023-06-28T10:33:25.300Z,7.20
2023-06-28T10:35:58.403Z,4.68
2023-06-28T10:38:34.190Z,4.65
2023-06-28T10:41:07.336Z,1.65
2023-06-28T10:46:25.685Z,4.15
2023-06-28T10:49:00.806Z,8.98
2023-06-28T10:51:36.129Z,8.40
2023-06-28T10:54:14.014Z,5.50
2023-06-28T10:56:50.560Z,6.07
2023-06-28T10:59:23.550Z,6.30
2023-06-28T11:01:59.161Z,6.63
2023-06-28T11:04:32.081Z,5.65
2023-06-28T11:07:18.439Z,6.40
2023-06-28T11:10:18.435Z,3.30
2023-06-28T11:12:53.340Z,4.72
2023-06-28T11:15:30.506Z,6.43
2023-06-28T11:18:11.586Z,3.20
2023-06-28T11:20:55.767Z,10.80
2023-06-28T11:23:37.084Z,5.22
2023-06-28T11:26:14.977Z,6.72
2023-06-28T11:28:52.185Z,3.95
2023-06-28T11:31:26.936Z,7.95
2023-06-28T11:34:00.134Z,5.80
2023-06-28T11:36:33.779Z,4.78
2023-06-28T11:39:08.196Z,5.55
2023-06-28T11:41:43.836Z,11.30
2023-06-28T11:44:17.235Z,9.23
2023-06-28T11:46:50.177Z,4.50
2023-06-28T11:49:24.197Z,7.03
2023-06-28T11:51:58.045Z,7.53
2023-06-28T11:54:33.559Z,4.50
2023-06-28T11:57:08.387Z,6.82
2023-06-28T11:59:45.544Z,7.05
2023-06-28T12:02:18.530Z,8.20
2023-06-28T12:05:00.023Z,8.32
2023-06-28T12:07:33.500Z,6.05
2023-06-28T12:10:07.930Z,5.43
2023-06-28T12:12:42.785Z,7.53
2023-06-28T12:15:15.807Z,6.55
2023-06-28T12:17:49.134Z,6.63
2023-06-28T12:22:57.191Z,4.90
2023-06-28T12:25:31.410Z,4.63
2023-06-28T12:28:06.171Z,7.60
2023-06-28T12:30:39.240Z,6.88
2023-06-28T12:33:12.102Z,5.82
2023-06-28T12:35:47.295Z,4.97
2023-06-28T12:38:21.528Z,10.20
2023-06-28T12:40:55.185Z,10.27
2023-06-28T12:43:30.101Z,6.75
2023-06-28T12:46:05.021Z,2.30
2023-06-28T12:48:38.207Z,5.68
2023-06-28T12:51:11.275Z,2.33
2023-06-28T12:53:44.123Z,6.05
2023-06-28T12:56:16.991Z,4.93
2023-06-28T12:58:51.399Z,4.47
2023-06-28T13:01:24.428Z,5.57
2023-06-28T13:03:57.453Z,5.18
2023-06-28T13:06:30.369Z,4.88
2023-06-28T13:09:03.506Z,7.20
2023-06-28T13:11:36.478Z,5.50
2023-06-28T13:14:10.687Z,3.00
2023-06-28T13:16:43.755Z,3.67
2023-06-28T13:19:16.751Z,1.40
2023-06-28T13:21:52.636Z,1.23
2023-06-28T13:24:25.943Z,1.55
2023-06-28T13:26:59.373Z,1.17
2023-06-28T13:29:33.548Z,2.85
2023-06-28T13:32:07.564Z,1.40
2023-06-28T13:34:40.492Z,1.42
2023-06-28T13:39:52.184Z,2.75
2023-06-28T13:42:26.175Z,2.00
2023-06-28T13:45:00.585Z,3.42
2023-06-28T13:47:33.608Z,2.08
2023-06-28T13:50:07.703Z,2.97
2023-06-28T13:52:40.654Z,4.07
2023-06-28T13:55:13.592Z,1.60
2023-06-28T13:57:46.417Z,2.88
2023-06-28T14:00:21.445Z,3.33
2023-06-28T14:02:56.284Z,3.30
2023-06-28T14:05:29.274Z,2.28
2023-06-28T14:08:02.360Z,1.60
2023-06-28T14:10:36.698Z,2.33
2023-06-28T14:13:09.581Z,2.53
2023-06-28T14:15:44.561Z,1.58
2023-06-28T14:18:17.716Z,8.52
2023-06-28T14:20:50.969Z,7.60
2023-06-28T14:23:23.918Z,3.88
2023-06-28T14:25:56.948Z,1.83
2023-06-28T14:28:31.437Z,3.88
2023-06-28T14:31:05.952Z,3.03
2023-06-28T14:33:46.441Z,1.38
2023-06-28T14:36:19.360Z,1.40
2023-06-28T14:38:52.591Z,3.88
2023-06-28T14:41:25.541Z,1.85
2023-06-28T14:43:58.508Z,1.85
2023-06-28T14:46:32.808Z,2.35
2023-06-28T14:49:05.773Z,1.73
2023-06-28T14:51:38.724Z,1.90
2023-06-28T14:54:11.606Z,1.60
2023-06-28T14:56:44.536Z,1.90
2023-06-28T14:59:17.424Z,4.15
2023-06-28T15:01:52.506Z,1.73
2023-06-28T15:04:25.518Z,1.92
2023-06-28T15:06:58.426Z,1.45
2023-06-28T15:09:32.520Z,1.88
2023-06-28T15:12:06.076Z,1.70
2023-06-28T15:17:13.678Z,6.10
2023-06-28T15:19:46.662Z,1.52
2023-06-28T15:22:20.791Z,8.70
2023-06-28T15:24:53.721Z,3.42
2023-06-28T15:27:26.597Z,1.33
2023-06-28T15:29:59.565Z,4.90
2023-06-28T15:32:34.824Z,1.50
2023-06-28T15:35:09.629Z,1.60
2023-06-28T15:37:44.481Z,1.85
2023-06-28T15:40:17.618Z,4.63
2023-06-28T15:42:50.539Z,1.40
2023-06-28T15:45:23.431Z,1.70
2023-06-28T15:47:57.732Z,2.22
2023-06-28T15:50:31.692Z,1.90
2023-06-28T15:53:04.785Z,2.47
2023-06-28T15:55:37.750Z,4.82
2023-06-28T15:58:10.833Z,2.33
2023-06-28T16:00:44.004Z,2.45
2023-06-28T16:03:18.591Z,2.88
2023-06-28T16:05:51.551Z,4.38
2023-06-28T16:08:24.420Z,3.17
2023-06-28T16:10:57.388Z,3.95
2023-06-28T16:13:31.060Z,3.42
2023-06-28T16:16:04.839Z,3.50
2023-06-28T16:18:39.119Z,5.95
2023-06-28T16:21:12.057Z,5.75
2023-06-28T16:23:45.334Z,5.32
2023-06-28T16:26:18.254Z,4.28
2023-06-28T16:28:51.296Z,6.13
2023-06-28T16:31:24.269Z,5.72
2023-06-28T16:33:58.586Z,6.22
2023-06-28T16:36:31.498Z,5.18
2023-06-28T16:39:04.696Z,6.18
2023-06-28T16:41:37.930Z,7.03
2023-06-28T16:44:10.804Z,6.13
2023-06-28T16:46:43.692Z,9.20
2023-06-28T16:49:17.972Z,8.80
2023-06-28T16:51:50.861Z,11.52
2023-06-28T16:54:25.179Z,9.05
2023-06-28T16:56:58.093Z,11.82
2023-06-28T16:59:30.943Z,11.93
2023-06-28T17:02:04.086Z,14.82
2023-06-28T17:04:38.377Z,7.72
2023-06-28T17:07:11.270Z,9.05
2023-06-28T17:09:44.149Z,10.20
2023-06-28T17:12:17.093Z,9.55
2023-06-28T17:14:50.104Z,9.50
2023-06-28T17:17:23.131Z,11.82
2023-06-28T17:19:57.462Z,10.15
2023-06-28T17:22:33.587Z,9.43
2023-06-28T17:25:08.168Z,12.55
2023-06-28T17:27:41.484Z,15.05
2023-06-28T17:30:14.763Z,19.73
2023-06-28T17:32:47.721Z,14.40
2023-06-28T17:35:21.972Z,10.18
2023-06-28T17:37:54.832Z,9.40
2023-06-28T17:40:27.628Z,11.50
2023-06-28T17:43:00.551Z,11.25
2023-06-28T17:45:33.761Z,11.25
2023-06-28T17:48:08.469Z,13.32
2023-06-28T17:50:43.129Z,10.63
2023-06-28T17:53:16.367Z,16.10
2023-06-28T17:55:49.237Z,9.20
2023-06-28T17:58:22.068Z,11.52
2023-06-28T18:00:54.898Z,10.77
2023-06-28T18:03:27.795Z,9.68
2023-06-28T18:06:03.367Z,11.35
2023-06-28T18:08:37.628Z,14.98
2023-06-28T18:11:10.529Z,12.77
2023-06-28T18:13:43.813Z,10.35
2023-06-28T18:16:17.005Z,11.73
2023-06-28T18:18:49.890Z,10.48
2023-06-28T18:21:24.226Z,10.77
2023-06-28T18:23:57.289Z,13.32
2023-06-28T18:26:30.248Z,17.75
2023-06-28T18:29:03.137Z,9.43
2023-06-28T18:31:36.306Z,10.82
2023-06-28T18:34:09.196Z,11.02
2023-06-28T18:36:43.633Z,12.05
2023-06-28T18:39:19.555Z,11.18
2023-06-28T18:41:52.592Z,13.27
2023-06-28T18:44:25.462Z,10.20
2023-06-28T18:46:58.377Z,12.57
2023-06-28T18:49:31.294Z,12.32
2023-06-28T18:52:06.283Z,14.77
2023-06-28T18:54:39.262Z,12.27
2023-06-28T18:57:12.220Z,11.75
2023-06-28T18:59:45.076Z,11.95
2023-06-28T19:02:18.150Z,12.75
2023-06-28T19:04:51.142Z,13.40
2023-06-28T19:07:25.543Z,13.32
2023-06-28T19:09:58.498Z,15.57
2023-06-28T19:12:31.784Z,14.82
2023-06-28T19:15:05.445Z,41.50
2023-06-28T19:17:38.362Z,24.15
2023-06-28T19:20:12.576Z,16.42
2023-06-28T19:22:46.859Z,18.80
2023-06-28T19:25:19.689Z,15.50
2023-06-28T19:27:52.666Z,17.70
2023-06-28T19:30:25.706Z,20.48
2023-06-28T19:32:58.637Z,19.67
2023-06-28T19:35:31.575Z,21.40
2023-06-28T19:38:06.022Z,28.67
2023-06-28T19:40:57.014Z,26.52
2023-06-28T19:46:34.460Z,23.80
2023-06-28T19:49:07.536Z,18.50
2023-06-28T19:51:40.426Z,19.70
2023-06-28T19:54:14.837Z,27.13
2023-06-28T19:56:47.800Z,21.52
2023-06-28T19:59:22.982Z,22.77
2023-06-28T20:01:56.028Z,21.88
2023-06-28T20:04:29.239Z,17.20
2023-06-28T20:07:03.101Z,26.02
2023-06-28T20:09:40.180Z,18.30
2023-06-28T20:12:13.515Z,21.63
2023-06-28T20:14:49.904Z,18.25
2023-06-28T20:17:23.028Z,22.00
2023-06-28T20:19:55.976Z,21.38
2023-06-28T20:22:29.909Z,23.38
2023-06-28T20:25:07.015Z,21.73
2023-06-28T20:27:40.164Z,25.33
2023-06-28T20:30:13.408Z,19.80
2023-06-28T20:32:46.357Z,23.33
2023-06-28T20:35:19.340Z,21.95
2023-06-28T20:37:52.388Z,20.65
2023-06-28T20:40:27.139Z,18.23
2023-06-28T20:43:02.146Z,16.98
2023-06-28T20:45:35.983Z,22.23
2023-06-28T20:48:09.057Z,21.55
2023-06-28T20:50:43.660Z,23.02
2023-06-28T20:53:16.553Z,20.20
2023-06-28T20:55:50.912Z,18.92
2023-06-28T20:58:23.870Z,25.02
2023-06-28T21:00:58.544Z,19.10
2023-06-28T21:03:31.496Z,24.60
2023-06-28T21:06:04.623Z,20.48
2023-06-28T21:08:40.737Z,20.50
2023-06-28T21:11:16.569Z,22.08
2023-06-28T21:13:49.906Z,21.92
2023-06-28T21:16:22.836Z,21.52
2023-06-28T21:18:55.683Z,20.42
2023-06-28T21:21:28.528Z,26.88
2023-06-28T21:24:01.515Z,23.88
2023-06-28T21:26:35.727Z,24.13
2023-06-28T21:29:08.635Z,19.80
2023-06-28T21:31:44.200Z,23.52
2023-06-28T21:34:17.094Z,25.20
2023-06-28T21:36:50.000Z,22.98
2023-06-28T21:39:23.002Z,22.73
2023-06-28T21:41:57.261Z,25.88
2023-06-28T21:44:30.127Z,23.60
2023-06-28T21:47:03.205Z,20.98
2023-06-28T21:49:37.258Z,25.73
2023-06-28T21:52:10.218Z,19.40
2023-06-28T21:54:43.403Z,23.13
2023-06-28T21:57:17.653Z,26.38
2023-06-28T21:59:50.814Z,25.80
2023-06-28T22:02:24.912Z,26.98
2023-06-28T22:04:58.224Z,23.20
2023-06-28T22:07:31.603Z,21.52
2023-06-28T22:10:05.190Z,23.58
2023-06-28T22:12:40.384Z,22.33
2023-06-28T22:15:13.798Z,21.13
2023-06-28T22:17:47.497Z,18.30
2023-06-28T22:20:20.981Z,22.10
2023-06-28T22:25:28.095Z,25.52
2023-06-28T22:28:03.348Z,19.83
2023-06-28T22:30:36.645Z,22.27
2023-06-28T22:33:09.971Z,24.17
2023-06-28T22:35:43.483Z,19.63
2023-06-28T22:38:16.858Z,20.45
2023-06-28T22:40:50.104Z,22.23
2023-06-28T22:43:24.745Z,22.13
2023-06-28T22:45:57.955Z,24.05
2023-06-28T22:48:32.827Z,26.70
2023-06-28T22:51:07.137Z,25.25
2023-06-28T22:53:40.567Z,23.25
2023-06-28T22:56:15.225Z,19.42
2023-06-28T22:58:49.942Z,27.10
2023-06-28T23:01:23.211Z,26.88
2023-06-28T23:03:56.542Z,25.30
2023-06-28T23:06:30.036Z,24.73
2023-06-28T23:09:04.051Z,29.08
2023-06-28T23:11:37.370Z,33.17
2023-06-28T23:14:11.996Z,28.70
2023-06-28T23:16:45.330Z,33.45
2023-06-28T23:19:18.578Z,28.02
2023-06-28T23:21:51.784Z,28.58
2023-06-28T23:24:25.004Z,29.58
2023-06-28T23:26:58.366Z,28.15
2023-06-28T23:29:35.453Z,28.67
2023-06-28T23:32:09.328Z,28.92
2023-06-28T23:34:44.187Z,31.00
2023-06-28T23:37:18.598Z,27.70
2023-06-28T23:39:52.152Z,26.05
2023-06-28T23:45:00.737Z,31.95
2023-06-28T23:47:34.262Z,28.60
2023-06-28T23:52:41.368Z,30.25
2023-06-28T23:55:14.600Z,29.17
2023-06-28T23:57:47.846Z,26.85
